Accueil
METAR-TAF:

METAR-TAF

Aéroports :

Aéroport Santander Seve Ballesteros

Santander, Espagne

latitude: 43-26N, longitude: 003-49W, altitude: 6 m

Observation

Le bulletin a été fait il y a 31 minutes, à 22:30 UTC
Vent 4 kt de sud/sud-ouest
Température 17°C
Humidité 94%
Pression 1025 hPa
Visibilité: 7000 m

METAR: LEXJ 172230Z AUTO 21004KT 7000 NCD 17/16 Q1025

Heure: 01:01 (23:01 UTC)

Prévision

Le bulletin a été fait il y a 3 heures et 1 minutes, à 20:00 UTC
Prévision valable du 17 à 21 UTC au 18 à 21 UTC
Vent 4 kt de direction variable
Visibilité 10 km ou plus
Nuages fragmentés à une hauteur de 5000 ft
Temporairement
du 18 à 11 UTC au 18 à 20 UTC
Vent 11 kt de nord-est

TAF: LEXJ 172000Z 1721/1821 VRB04KT 9999 BKN050 TX23/1814Z TN14/1805Z TEMPO 1811/1820 05011KT

Observations et prévisions météorologiques de plus de 4000 aéroports (messages METAR et TAF).

Les stations disponibles sont représentées par des disques jaunes et rouges sur la carte.

Passer la souris dessus pour voir le nom de la station.

Cliquer dessus pour voir les observations et prévisions météorologiques.

Pour changer de carte: cliquez sur les boutons verts avec une croix noire pour zoomer, sur le bouton vert avec un tiret pour effectuer un zoom arrière, ou sur les flèches vertes pour les cartes adjacentes.


METAR-TAF: